Aviation Digital Data Service (ADDS)

Output produced by METARs form (1617 UTC 31 October 2014)
found at http://www.aviationweather.gov/adds/metars/
 
METAR text: EPBY 311600Z 00000KT 3500 BR OVC009 06/06 Q1027
Conditions at: EPBY (BYDGOSZDZ , PL) observed 1600 UTC 31 October 2014
Temperature: 6.0°C (43°F)
Dewpoint: 6.0°C (43°F) [RH = 100%]
Pressure (altimeter): 30.32 inches Hg (1027.0 mb)
Winds: calm
Visibility: 2.17 miles (3.49 km)
Ceiling: 900 feet AGL
Clouds: overcast cloud deck at 900 feet AGL
Weather: BR  (mist)

Forecast for: EPBY (BYDGOSZDZ , PL)
Text: TAF EPBY 311430Z 3115/3124 VRB02KT 3000 BR BKN005
Forecast period: 1500 to 2000 UTC 31 October 2014
Forecast type: FROM: standard forecast or significant change
Winds: variable direction winds at 2 MPH (2 knots; 1.0 m/s)
Visibility: 1.86 miles (2.99 km)
Ceiling: 500 feet AGL
Clouds: broken clouds at 500 feet AGL
Weather: BR  (mist)
Text: PROB40 3117/3120 1500 BR
Forecast period: 1700 to 2000 UTC 31 October 2014
Forecast type: PROBABLE: 40 percent likelihood of the following during this time
Visibility: 0.93 miles (1.50 km)
Weather: BR  (mist)
Text: BECMG 3120/3122 0500 FG BKN001
Forecast period: 2000 UTC 31 October 2014 to 0000 UTC 01 November 2014
Forecast type: BECOMING: Conditions expected to become as follows by 2200 UTC 31 October 2014
Winds: variable direction winds at 2 MPH (2 knots; 1.0 m/s)
Visibility: 0.31 miles (0.50 km)
Ceiling: 100 feet AGL
Clouds: broken clouds at 100 feet AGL
Weather: FG  (fog)